Time;durP1;ratioP1;P1;durP2;ratioP2;P2;SDS_P1;SDS_P2;PMS_P1;PMS_P2;Temp;Humidity;BMP_temperature;BMP_pressure;BME280_temperature;BME280_humidity;BME280_pressure;Samples;Min_cycle;Max_cycle;Signal;HPM_P1;HPM_P2
2023/08/29 00:00:10;;;;;;;1.30;0.60;;;;;;;14.60;80.11;99209.98;106955;1270;22532;-57
2023/08/29 00:03:03;;;;;;;1.80;0.90;;;;;;;14.41;79.04;99203.67;106362;1273;99069;-55
2023/08/29 00:05:32;;;;;;;4.00;1.30;;;;;;;14.29;79.18;99203.70;107100;1274;98709;-56
2023/08/29 00:08:01;;;;;;;6.10;1.00;;;;;;;14.25;79.94;99200.80;106544;1272;101837;-56
2023/08/29 00:10:31;;;;;;;2.50;0.70;;;;;;;14.27;80.60;99199.46;106405;1274;99582;-56
2023/08/29 00:13:00;;;;;;;1.60;0.90;;;;;;;14.25;81.26;99196.96;106510;1274;22541;-56
2023/08/29 00:15:28;;;;;;;0.90;0.70;;;;;;;14.23;81.57;99193.44;106762;1274;101000;-56
2023/08/29 00:17:57;;;;;;;1.60;1.00;;;;;;;14.21;81.83;99189.04;106445;1273;23836;-56
2023/08/29 00:20:26;;;;;;;0.90;0.80;;;;;;;14.13;82.26;99189.08;106499;1273;99139;-56
2023/08/29 00:22:55;;;;;;;1.70;0.90;;;;;;;14.14;83.04;99188.65;106561;1274;99561;-56
2023/08/29 00:25:24;;;;;;;1.20;0.80;;;;;;;14.15;83.34;99180.52;106870;1271;26346;-56
2023/08/29 00:27:53;;;;;;;2.00;0.80;;;;;;;14.15;83.31;99182.48;106406;1273;99792;-57
2023/08/29 00:30:22;;;;;;;1.20;0.70;;;;;;;14.10;83.16;99176.47;106494;1274;26125;-56
2023/08/29 00:32:51;;;;;;;1.60;0.70;;;;;;;14.08;83.94;99172.77;106639;1275;98925;-56
2023/08/29 00:35:20;;;;;;;1.50;1.10;;;;;;;14.03;83.77;99171.23;106869;1275;99212;-56
2023/08/29 00:37:49;;;;;;;1.30;0.60;;;;;;;13.97;84.13;99169.73;106589;1274;99599;-55
2023/08/29 00:40:18;;;;;;;1.20;0.60;;;;;;;13.93;85.25;99169.99;106448;1275;99043;-56
2023/08/29 00:42:47;;;;;;;0.90;0.60;;;;;;;13.89;85.41;99163.27;106614;1274;23305;-56
2023/08/29 00:45:16;;;;;;;1.80;1.20;;;;;;;13.83;84.74;99159.31;106522;1272;99419;-56
2023/08/29 00:47:45;;;;;;;1.20;0.80;;;;;;;13.71;83.55;99152.14;106576;1274;24049;-57
2023/08/29 00:50:14;;;;;;;1.10;0.80;;;;;;;13.56;83.32;99143.63;106293;1273;99471;-56
2023/08/29 00:52:42;;;;;;;1.30;0.70;;;;;;;13.44;83.17;99138.19;106383;1273;98936;-56
2023/08/29 00:55:12;;;;;;;0.80;0.80;;;;;;;13.33;82.28;99128.64;107310;1273;23131;-56
2023/08/29 00:57:41;;;;;;;2.10;0.90;;;;;;;13.25;80.91;99114.67;106754;1268;101147;-57
2023/08/29 01:00:11;;;;;;;1.00;0.80;;;;;;;13.18;81.27;99103.52;106907;1274;22523;-57
2023/08/29 01:02:40;;;;;;;1.40;0.80;;;;;;;13.14;84.94;99099.99;106443;1273;98997;-56
2023/08/29 01:05:09;;;;;;;1.50;0.60;;;;;;;13.17;88.76;99098.76;106806;1278;99053;-56
2023/08/29 01:07:39;;;;;;;1.40;0.60;;;;;;;13.29;90.61;99109.00;106630;1275;25426;-57
2023/08/29 01:10:09;;;;;;;1.60;0.50;;;;;;;13.40;90.95;99123.45;106751;1273;99067;-55
2023/08/29 01:12:45;;;;;;;1.30;0.60;;;;;;;13.50;90.77;99131.70;106495;1274;22676;-56
2023/08/29 01:15:21;;;;;;;1.20;0.50;;;;;;;13.59;91.04;99132.79;106564;1274;98904;-55
2023/08/29 01:17:58;;;;;;;0.50;0.40;;;;;;;13.64;91.06;99130.68;108285;1275;22538;-55
2023/08/29 01:20:29;;;;;;;;;;;;;;;13.73;91.30;99130.83;106382;1274;100341;-56
2023/08/29 01:23:17;;;;;;;0.70;0.30;;;;;;;13.76;91.50;99130.08;106588;1271;85766;-56
2023/08/29 01:26:08;;;;;;;0.80;0.60;;;;;;;13.80;91.70;99128.92;106745;1274;99183;-56
2023/08/29 01:28:43;;;;;;;0.80;0.50;;;;;;;13.81;91.62;99136.89;109056;1277;98968;-56
2023/08/29 01:31:13;;;;;;;0.50;0.40;;;;;;;13.82;92.09;99145.05;107614;1273;22523;-56
2023/08/29 01:33:42;;;;;;;0.70;0.60;;;;;;;13.82;92.05;99157.95;109514;1270;99624;-56
2023/08/29 01:36:11;;;;;;;1.80;1.00;;;;;;;13.82;92.30;99172.88;108453;1273;22525;-56
2023/08/29 01:38:40;;;;;;;0.60;0.50;;;;;;;13.82;92.42;99178.08;106420;1275;98949;-56
2023/08/29 01:41:09;;;;;;;0.70;0.40;;;;;;;13.78;92.53;99184.35;106713;1276;99966;-56
2023/08/29 01:43:37;;;;;;;2.30;0.70;;;;;;;13.84;93.41;99184.40;106374;1274;23030;-56
2023/08/29 01:46:06;;;;;;;0.80;0.50;;;;;;;13.92;93.87;99175.69;106670;1274;100918;-55
2023/08/29 01:48:38;;;;;;;0.80;0.40;;;;;;;14.01;94.70;99168.71;110002;1280;22375;-56
2023/08/29 01:51:07;;;;;;;1.10;0.50;;;;;;;14.13;95.18;99175.10;110047;1274;99099;-56
2023/08/29 01:53:38;;;;;;;0.40;0.40;;;;;;;14.13;94.90;99168.92;108785;1275;98749;-56
2023/08/29 01:56:09;;;;;;;3.00;0.50;;;;;;;14.11;94.86;99158.55;106334;1274;99160;-56
2023/08/29 01:58:40;;;;;;;0.60;0.40;;;;;;;14.20;95.65;99157.60;107681;1277;100186;-56
2023/08/29 02:01:09;;;;;;;0.60;0.30;;;;;;;14.22;95.06;99153.25;106368;1275;23024;-56
2023/08/29 02:03:44;;;;;;;1.10;0.50;;;;;;;14.01;94.05;99147.16;106425;1275;99291;-55
2023/08/29 02:06:14;;;;;;;1.10;0.40;;;;;;;13.81;93.82;99136.88;106450;1273;25792;-56
2023/08/29 02:08:44;;;;;;;10.50;1.00;;;;;;;13.75;94.95;99126.83;106597;1275;99818;-56
2023/08/29 02:11:13;;;;;;;0.90;0.40;;;;;;;13.73;94.20;99112.40;107010;1275;99150;-56
2023/08/29 02:13:42;;;;;;;0.70;0.40;;;;;;;13.66;94.14;99103.64;106866;1274;22835;-57
2023/08/29 02:16:11;;;;;;;2.10;1.20;;;;;;;13.60;94.75;99103.85;106447;1275;99528;-57
2023/08/29 02:18:41;;;;;;;0.60;0.40;;;;;;;13.64;96.09;99104.66;106513;1274;22539;-54
2023/08/29 02:21:09;;;;;;;0.40;0.40;;;;;;;13.79;97.25;99108.55;107037;1275;99543;-56
2023/08/29 02:23:42;;;;;;;1.40;0.30;;;;;;;13.88;97.40;99110.48;106455;1273;99465;-56
2023/08/29 02:26:11;;;;;;;1.20;0.70;;;;;;;13.91;97.46;99117.13;106912;1275;99201;-56
2023/08/29 02:28:39;;;;;;;0.40;0.40;;;;;;;13.92;97.89;99117.21;106237;1273;99244;-56
2023/08/29 02:31:10;;;;;;;0.40;0.40;;;;;;;13.98;98.07;99115.22;107772;1274;23144;-56
2023/08/29 02:33:39;;;;;;;0.50;0.50;;;;;;;14.01;98.04;99113.63;106214;1274;99349;-57
2023/08/29 02:36:08;;;;;;;1.00;0.90;;;;;;;14.06;98.41;99105.70;106724;1273;24273;-57
2023/08/29 02:38:38;;;;;;;1.50;0.50;;;;;;;14.05;98.12;99102.99;106838;1275;99148;-56
2023/08/29 02:41:07;;;;;;;2.10;0.40;;;;;;;14.06;98.53;99102.01;106862;1274;99282;-56
2023/08/29 02:43:35;;;;;;;0.70;0.50;;;;;;;14.10;98.86;99092.10;106435;1275;25399;-55
2023/08/29 02:46:04;;;;;;;0.50;0.50;;;;;;;14.17;99.17;99097.77;106586;1274;100261;-56
2023/08/29 02:48:33;;;;;;;0.30;0.30;;;;;;;14.17;99.10;99102.48;106402;1274;23953;-56
2023/08/29 02:51:02;;;;;;;0.50;0.50;;;;;;;14.18;99.27;99097.91;106537;1273;99390;-56
2023/08/29 02:53:31;;;;;;;0.60;0.50;;;;;;;14.23;99.54;99097.86;106342;1274;99219;-56
2023/08/29 02:56:00;;;;;;;2.70;0.60;;;;;;;14.27;99.47;99097.90;106677;1278;99284;-56
2023/08/29 02:58:29;;;;;;;0.70;0.50;;;;;;;14.24;99.42;99097.41;107563;1274;99968;-56
2023/08/29 03:01:02;;;;;;;0.90;0.50;;;;;;;14.32;99.96;99096.67;106947;1274;24313;-56
2023/08/29 03:03:32;;;;;;;0.60;0.50;;;;;;;14.42;100.00;99094.49;106938;1273;101936;-56
2023/08/29 03:06:01;;;;;;;0.50;0.40;;;;;;;14.46;99.88;99096.00;106660;1275;22727;-57
2023/08/29 03:08:30;;;;;;;0.50;0.30;;;;;;;14.31;98.63;99091.84;106534;1274;99291;-56
2023/08/29 03:11:05;;;;;;;2.20;0.70;;;;;;;14.08;97.23;99077.77;106625;1275;98963;-57
2023/08/29 03:13:34;;;;;;;0.60;0.40;;;;;;;13.92;98.68;99078.59;107055;1274;25329;-57
2023/08/29 03:16:11;;;;;;;0.70;0.60;;;;;;;13.91;99.54;99069.01;106324;1273;99285;-57
2023/08/29 03:18:40;;;;;;;0.30;0.30;;;;;;;13.94;99.24;99050.96;106409;1274;24499;-56
2023/08/29 03:21:09;;;;;;;2.90;0.50;;;;;;;13.87;98.95;99034.65;106568;1275;99244;-57
2023/08/29 03:23:38;;;;;;;1.20;1.10;;;;;;;13.86;99.43;99045.75;106857;1275;98715;-57
2023/08/29 03:26:08;;;;;;;1.80;0.60;;;;;;;13.89;99.97;99045.21;106345;1277;99162;-56
2023/08/29 03:28:39;;;;;;;0.70;0.40;;;;;;;13.96;100.00;99044.30;106753;1272;99816;-56
2023/08/29 03:31:12;;;;;;;0.80;0.50;;;;;;;14.02;100.00;99039.52;106476;1267;25417;-55
2023/08/29 03:33:42;;;;;;;0.60;0.40;;;;;;;14.05;100.00;99028.98;106397;1274;99857;-56
2023/08/29 03:36:11;;;;;;;0.60;0.50;;;;;;;14.01;100.00;99031.67;106655;1273;22524;-56
2023/08/29 03:38:42;;;;;;;1.20;0.80;;;;;;;14.04;100.00;99036.73;106438;1275;99413;-57
2023/08/29 03:41:10;;;;;;;1.00;0.60;;;;;;;14.14;100.00;99035.38;106770;1274;99540;-56
2023/08/29 03:43:39;;;;;;;0.90;0.60;;;;;;;14.18;100.00;99035.23;106666;1273;24237;-56
2023/08/29 03:46:09;;;;;;;0.40;0.40;;;;;;;14.17;100.00;99037.55;107088;1269;99803;-56
2023/08/29 03:48:38;;;;;;;0.50;0.50;;;;;;;14.21;100.00;99038.85;106718;1271;24363;-57
2023/08/29 03:51:08;;;;;;;0.50;0.50;;;;;;;14.22;100.00;99036.34;106410;1274;99163;-57
2023/08/29 03:53:37;;;;;;;0.60;0.60;;;;;;;14.26;100.00;99029.02;106425;1276;100571;-56
2023/08/29 03:56:09;;;;;;;0.60;0.60;;;;;;;14.30;100.00;99028.39;106757;1274;99895;-56
2023/08/29 03:58:38;;;;;;;0.60;0.50;;;;;;;14.28;100.00;99024.17;106451;1278;99701;-56
2023/08/29 04:01:07;;;;;;;0.90;0.30;;;;;;;14.20;100.00;99010.20;106803;1273;22644;-57
2023/08/29 04:03:37;;;;;;;0.40;0.40;;;;;;;14.18;100.00;99000.91;106376;1269;99941;-56
2023/08/29 04:06:06;;;;;;;1.20;0.50;;;;;;;14.17;100.00;98999.92;106882;1275;22666;-56
2023/08/29 04:08:35;;;;;;;0.60;0.30;;;;;;;14.18;100.00;98997.92;106296;1272;99845;-57
2023/08/29 04:11:04;;;;;;;0.80;0.40;;;;;;;14.24;100.00;98996.39;106798;1272;99703;-56
2023/08/29 04:13:36;;;;;;;2.00;0.50;;;;;;;14.23;100.00;98981.28;106549;1274;22530;-57
2023/08/29 04:16:05;;;;;;;1.40;0.50;;;;;;;14.18;99.99;98977.80;107370;1271;99361;-57
2023/08/29 04:18:34;;;;;;;1.40;0.50;;;;;;;14.19;100.00;98975.61;107868;1271;22649;-56
2023/08/29 04:21:03;;;;;;;0.90;0.40;;;;;;;14.24;100.00;98977.73;106332;1272;99728;-56
2023/08/29 04:23:31;;;;;;;1.90;0.60;;;;;;;14.28;100.00;98981.78;106523;1274;99114;-56
2023/08/29 04:26:01;;;;;;;2.90;0.60;;;;;;;14.31;100.00;98984.71;106614;1271;99362;-56
2023/08/29 04:28:30;;;;;;;0.90;0.60;;;;;;;14.34;100.00;98988.65;107797;1274;99576;-56
2023/08/29 04:31:11;;;;;;;0.70;0.50;;;;;;;14.37;100.00;98995.33;106459;1273;22543;-56
2023/08/29 04:33:42;;;;;;;1.00;0.80;;;;;;;14.41;100.00;99007.44;106594;1274;99558;-56
2023/08/29 04:36:14;;;;;;;0.70;0.50;;;;;;;14.44;100.00;99016.28;106520;1272;22529;-55
2023/08/29 04:38:47;;;;;;;1.00;0.80;;;;;;;14.48;100.00;99019.70;106477;1275;99234;-56
2023/08/29 04:41:16;;;;;;;0.80;0.60;;;;;;;14.53;100.00;99029.81;106823;1271;100321;-56
2023/08/29 04:43:45;;;;;;;0.90;0.90;;;;;;;14.55;100.00;99038.95;108257;1273;22889;-56
2023/08/29 04:46:14;;;;;;;0.80;0.60;;;;;;;14.52;100.00;99050.36;106387;1274;100876;-56
2023/08/29 04:48:43;;;;;;;0.80;0.70;;;;;;;14.51;100.00;99055.02;106432;1274;22679;-56
2023/08/29 04:51:12;;;;;;;1.20;0.60;;;;;;;14.49;100.00;99058.81;106837;1275;99773;-56
2023/08/29 04:53:41;;;;;;;0.60;0.60;;;;;;;14.45;100.00;99066.80;106294;1276;99168;-55
2023/08/29 04:56:11;;;;;;;0.50;0.40;;;;;;;14.42;100.00;99087.73;106899;1273;99164;-56
2023/08/29 04:58:40;;;;;;;0.60;0.40;;;;;;;14.21;100.00;99096.05;106389;1275;99628;-56
2023/08/29 05:01:09;;;;;;;0.60;0.50;;;;;;;14.13;100.00;99101.55;106852;1274;24362;-56
2023/08/29 05:03:38;;;;;;;1.30;0.40;;;;;;;14.22;100.00;99094.80;106275;1262;99882;-56
2023/08/29 05:06:07;;;;;;;1.20;0.70;;;;;;;14.24;100.00;99078.89;106773;1274;25378;-55
2023/08/29 05:08:36;;;;;;;0.60;0.60;;;;;;;14.24;100.00;99058.77;106483;1274;99114;-56
2023/08/29 05:11:05;;;;;;;0.40;0.40;;;;;;;14.30;100.00;99022.61;106690;1274;99095;-56
2023/08/29 05:13:34;;;;;;;0.30;0.20;;;;;;;14.34;100.00;98981.17;106462;1275;22537;-56
2023/08/29 05:16:03;;;;;;;0.50;0.40;;;;;;;14.32;100.00;98961.70;106624;1274;100166;-56
2023/08/29 05:18:32;;;;;;;0.50;0.50;;;;;;;14.23;100.00;98963.08;106345;1274;22597;-56
2023/08/29 05:21:01;;;;;;;0.80;0.60;;;;;;;14.18;100.00;98973.41;107042;1274;100360;-57
2023/08/29 05:23:30;;;;;;;1.10;0.30;;;;;;;14.18;100.00;98987.29;106725;1275;99977;-57
2023/08/29 05:25:59;;;;;;;1.10;0.70;;;;;;;14.18;100.00;98976.23;106618;1273;99266;-56
2023/08/29 05:28:28;;;;;;;1.00;0.50;;;;;;;14.14;100.00;98932.11;106366;1273;99149;-57
2023/08/29 05:30:57;;;;;;;0.40;0.40;;;;;;;14.13;100.00;98910.09;106911;1273;22713;-56
2023/08/29 05:33:26;;;;;;;1.00;0.80;;;;;;;14.06;100.00;98936.45;106201;1274;99565;-55
2023/08/29 05:35:55;;;;;;;1.60;0.80;;;;;;;13.95;100.00;98962.84;107010;1274;24318;-56
2023/08/29 05:38:27;;;;;;;0.70;0.60;;;;;;;13.77;100.00;98975.01;107367;1275;99381;-56
2023/08/29 05:40:56;;;;;;;0.80;0.70;;;;;;;13.65;100.00;98973.96;106742;1274;99086;-55
2023/08/29 05:43:26;;;;;;;0.90;0.60;;;;;;;13.63;100.00;98938.95;106589;1278;24217;-56
2023/08/29 05:45:55;;;;;;;2.00;0.70;;;;;;;13.63;100.00;98901.83;106411;1275;99604;-56
2023/08/29 05:48:25;;;;;;;0.60;0.50;;;;;;;13.59;100.00;98908.79;106628;1274;24383;-56
2023/08/29 05:50:54;;;;;;;0.90;0.60;;;;;;;13.59;100.00;98920.34;106441;1275;99774;-56
2023/08/29 05:53:23;;;;;;;0.90;0.60;;;;;;;13.60;100.00;98936.83;107035;1273;99924;-57
2023/08/29 05:55:51;;;;;;;1.30;0.60;;;;;;;13.69;100.00;98944.84;106528;1277;99874;-56
2023/08/29 05:58:22;;;;;;;0.40;0.40;;;;;;;13.77;100.00;98942.34;106437;1273;99266;-56
2023/08/29 06:00:51;;;;;;;0.30;0.30;;;;;;;13.85;100.00;98936.85;106931;1274;22839;-56
2023/08/29 06:03:20;;;;;;;0.90;0.60;;;;;;;13.88;100.00;98949.35;106204;1275;99863;-55
2023/08/29 06:05:51;;;;;;;0.90;0.80;;;;;;;13.97;100.00;98963.77;105964;1275;510176;-56
2023/08/29 06:08:20;;;;;;;0.60;0.40;;;;;;;14.05;100.00;98971.91;106314;1273;99462;-56
2023/08/29 06:10:49;;;;;;;1.10;0.50;;;;;;;14.15;100.00;98958.80;106353;1280;99814;-56
2023/08/29 06:13:17;;;;;;;0.50;0.50;;;;;;;14.26;100.00;98950.42;106454;1273;22787;-56
2023/08/29 06:15:46;;;;;;;0.60;0.60;;;;;;;14.31;100.00;98940.95;106749;1274;99635;-56
2023/08/29 06:18:15;;;;;;;0.70;0.50;;;;;;;14.32;100.00;98927.94;107122;1275;23869;-55
2023/08/29 06:20:47;;;;;;;0.80;0.50;;;;;;;14.35;100.00;98917.04;106355;1273;99549;-55
2023/08/29 06:23:16;;;;;;;1.10;0.90;;;;;;;14.33;100.00;98910.68;106997;1277;99097;-55
2023/08/29 06:25:47;;;;;;;0.60;0.60;;;;;;;14.34;100.00;98925.33;106934;1274;24260;-55
2023/08/29 06:28:17;;;;;;;0.60;0.60;;;;;;;14.35;100.00;98942.61;106411;1273;99144;-55
2023/08/29 06:30:46;;;;;;;3.00;1.30;;;;;;;14.34;100.00;98954.19;107018;1273;23752;-57
2023/08/29 06:33:15;;;;;;;1.30;1.00;;;;;;;14.37;100.00;98956.98;107435;1273;99869;-53
2023/08/29 06:35:44;;;;;;;2.00;1.30;;;;;;;14.43;100.00;98964.54;107110;1273;99036;-55
2023/08/29 06:38:15;;;;;;;1.10;1.00;;;;;;;14.47;100.00;98961.07;106464;1273;99480;-56
2023/08/29 06:40:53;;;;;;;2.20;1.30;;;;;;;14.48;100.00;98950.13;106772;1273;100624;-57
2023/08/29 06:43:29;;;;;;;1.40;1.30;;;;;;;14.51;100.00;98937.30;106534;1275;24323;-55
2023/08/29 06:45:58;;;;;;;1.30;1.00;;;;;;;14.67;100.00;98924.41;106816;1274;101143;-57
2023/08/29 06:48:31;;;;;;;1.60;1.40;;;;;;;14.71;100.00;98919.75;106518;1275;22526;-56
2023/08/29 06:51:01;;;;;;;1.20;1.10;;;;;;;14.60;100.00;98923.01;106473;1273;99272;-55
2023/08/29 06:53:30;;;;;;;2.90;1.20;;;;;;;14.49;100.00;98925.76;106515;1273;99178;-57
2023/08/29 06:55:59;;;;;;;2.50;1.00;;;;;;;14.52;100.00;98919.90;106566;1270;99299;-58
2023/08/29 06:58:28;;;;;;;1.80;1.40;;;;;;;14.59;100.00;98924.17;106644;1273;100090;-61
2023/08/29 07:00:57;;;;;;;1.20;1.00;;;;;;;14.59;100.00;98922.94;106342;1273;22702;-57
2023/08/29 07:03:26;;;;;;;0.70;0.70;;;;;;;14.78;100.00;98921.42;106376;1270;99338;-54
2023/08/29 07:05:55;;;;;;;1.50;1.10;;;;;;;14.74;100.00;98914.78;106454;1273;25426;-55
2023/08/29 07:08:24;;;;;;;1.20;0.90;;;;;;;14.72;100.00;98911.41;106616;1274;99999;-56
2023/08/29 07:10:53;;;;;;;1.50;0.90;;;;;;;14.77;100.00;98907.64;106860;1263;99244;-55
2023/08/29 07:13:22;;;;;;;2.00;1.30;;;;;;;14.88;100.00;98907.93;107116;1273;24525;-56
2023/08/29 07:15:51;;;;;;;2.30;0.70;;;;;;;14.95;100.00;98905.22;106629;1280;100618;-55
2023/08/29 07:18:20;;;;;;;0.80;0.70;;;;;;;14.97;100.00;98904.23;106771;1257;26516;-55
2023/08/29 07:20:49;;;;;;;1.30;0.70;;;;;;;15.05;100.00;98910.10;106714;1269;99193;-53
2023/08/29 07:23:18;;;;;;;1.00;0.70;;;;;;;15.06;100.00;98914.92;106431;1273;99087;-54
2023/08/29 07:25:47;;;;;;;1.00;0.80;;;;;;;15.02;100.00;98908.07;106849;1273;24413;-54
2023/08/29 07:28:16;;;;;;;2.30;1.10;;;;;;;15.00;100.00;98905.34;106273;1273;99693;-50
2023/08/29 07:30:47;;;;;;;1.20;1.10;;;;;;;14.98;100.00;98903.08;106500;1273;24893;-55
2023/08/29 07:33:17;;;;;;;1.00;0.70;;;;;;;15.10;100.00;98900.38;106802;1273;99205;-54
2023/08/29 07:35:48;;;;;;;1.10;0.60;;;;;;;15.19;100.00;98890.91;108202;1273;22533;-54
2023/08/29 07:38:18;;;;;;;0.70;0.60;;;;;;;15.21;100.00;98883.88;106408;1274;100243;-55
2023/08/29 07:40:47;;;;;;;2.90;0.70;;;;;;;15.30;100.00;98885.97;106329;1273;99416;-50
2023/08/29 07:43:16;;;;;;;1.50;0.50;;;;;;;15.53;100.00;98891.54;106551;1274;22598;-49
2023/08/29 07:45:46;;;;;;;1.10;0.70;;;;;;;15.68;100.00;98894.20;106817;1273;100352;-52
2023/08/29 07:48:15;;;;;;;1.60;1.00;;;;;;;15.65;100.00;98902.63;107166;1257;27616;-51
2023/08/29 07:50:44;;;;;;;2.00;0.60;;;;;;;15.65;100.00;98907.71;106392;1274;99198;-51
2023/08/29 07:53:13;;;;;;;1.90;0.80;;;;;;;15.63;100.00;98914.92;106711;1273;99662;-50
2023/08/29 07:55:42;;;;;;;1.20;0.80;;;;;;;15.41;100.00;98910.36;106598;1275;22558;-50
2023/08/29 07:58:11;;;;;;;2.60;0.50;;;;;;;15.30;100.00;98909.48;107620;1273;99642;-51
2023/08/29 08:00:40;;;;;;;1.60;0.90;;;;;;;15.23;100.00;98913.05;106497;1273;25368;-51
2023/08/29 08:03:09;;;;;;;0.80;0.70;;;;;;;15.19;100.00;98906.16;106525;1273;99536;-50
2023/08/29 08:05:38;;;;;;;1.70;0.70;;;;;;;15.17;100.00;98901.23;106953;1273;99092;-50
2023/08/29 08:08:07;;;;;;;0.90;0.70;;;;;;;15.19;100.00;98899.16;106475;1274;99347;-49
2023/08/29 08:10:36;;;;;;;0.90;0.80;;;;;;;15.20;100.00;98907.95;106872;1273;99649;-51
2023/08/29 08:13:05;;;;;;;1.80;0.70;;;;;;;15.28;100.00;98908.08;106408;1273;25297;-51
2023/08/29 08:15:34;;;;;;;2.70;1.10;;;;;;;15.36;100.00;98910.05;107543;1273;101865;-51
2023/08/29 08:18:03;;;;;;;1.10;0.60;;;;;;;15.38;100.00;98907.41;106609;1273;26264;-50
2023/08/29 08:20:33;;;;;;;2.60;0.60;;;;;;;15.38;100.00;98909.19;106195;1273;99383;-49
2023/08/29 08:23:03;;;;;;;2.00;1.60;;;;;;;15.28;100.00;98909.27;106598;1273;99696;-51
2023/08/29 08:25:32;;;;;;;1.20;0.80;;;;;;;15.19;100.00;98905.12;106608;1272;23015;-50
2023/08/29 08:28:01;;;;;;;1.30;0.60;;;;;;;15.19;100.00;98902.88;106272;1273;99856;-50
2023/08/29 08:30:30;;;;;;;2.60;1.30;;;;;;;15.13;100.00;98897.73;107764;1272;25482;-50
2023/08/29 08:32:58;;;;;;;0.80;0.30;;;;;;;15.11;100.00;98905.05;106414;1273;99448;-51
2023/08/29 08:35:27;;;;;;;0.60;0.50;;;;;;;15.06;100.00;98899.87;107348;1273;100091;-50
2023/08/29 08:38:01;;;;;;;2.50;0.70;;;;;;;15.04;100.00;98911.02;107769;1273;101156;-52
2023/08/29 08:40:31;;;;;;;1.00;0.30;;;;;;;14.90;100.00;98901.25;106326;1273;99869;-49
2023/08/29 08:43:05;;;;;;;1.20;0.60;;;;;;;14.78;100.00;98891.81;106978;1273;24067;-51
2023/08/29 08:45:34;;;;;;;1.10;0.90;;;;;;;14.72;100.00;98897.25;106677;1273;99886;-47
2023/08/29 08:48:05;;;;;;;1.20;0.50;;;;;;;14.70;100.00;98891.23;106417;1273;22529;-50
2023/08/29 08:50:35;;;;;;;1.00;0.70;;;;;;;14.73;100.00;98887.88;106446;1276;99313;-53
2023/08/29 08:53:05;;;;;;;0.70;0.50;;;;;;;14.79;100.00;98897.20;106930;1274;99994;-51
2023/08/29 08:55:34;;;;;;;1.40;0.40;;;;;;;14.87;100.00;98893.38;107752;1257;23964;-50
2023/08/29 08:58:04;;;;;;;1.00;0.60;;;;;;;14.95;100.00;98881.59;106262;1258;99292;-51
2023/08/29 09:00:33;;;;;;;0.40;0.40;;;;;;;14.97;100.00;98889.64;106315;1273;22669;-51
2023/08/29 09:03:02;;;;;;;0.90;0.50;;;;;;;14.96;100.00;98894.44;107101;1273;99094;-53
2023/08/29 09:05:31;;;;;;;0.40;0.30;;;;;;;14.95;100.00;98902.23;106798;1273;99045;-51
2023/08/29 09:08:10;;;;;;;0.90;0.60;;;;;;;14.97;100.00;98908.42;107044;1273;99790;-49
2023/08/29 09:10:41;;;;;;;0.70;0.40;;;;;;;14.92;100.00;98908.09;106872;1276;99197;-51
2023/08/29 09:13:16;;;;;;;0.80;0.40;;;;;;;14.92;100.00;98914.92;106540;1277;22555;-50
2023/08/29 09:15:46;;;;;;;1.50;0.90;;;;;;;14.93;100.00;98914.27;106361;1275;99813;-51
2023/08/29 09:18:28;;;;;;;0.60;0.30;;;;;;;14.93;100.00;98908.20;106407;1273;24257;-49
2023/08/29 09:21:02;;;;;;;0.90;0.30;;;;;;;14.94;100.00;98902.82;106427;1267;99215;-52
2023/08/29 09:23:37;;;;;;;0.90;0.40;;;;;;;15.06;100.00;98896.88;106687;1268;99153;-51
2023/08/29 09:26:11;;;;;;;0.70;0.40;;;;;;;15.16;100.00;98896.02;106455;1273;99519;-51
2023/08/29 09:28:41;;;;;;;0.50;0.40;;;;;;;15.20;100.00;98901.73;106338;1273;99085;-51
2023/08/29 09:31:14;;;;;;;0.60;0.30;;;;;;;15.20;100.00;98903.42;107361;1273;22538;-51
2023/08/29 09:33:43;;;;;;;1.80;0.60;;;;;;;15.09;100.00;98904.84;106187;1273;99647;-54
2023/08/29 09:36:16;;;;;;;1.30;0.70;;;;;;;14.99;100.00;98905.27;106521;1273;22530;-53
2023/08/29 09:38:49;;;;;;;0.70;0.40;;;;;;;15.02;100.00;98913.11;106796;1273;99241;-51
2023/08/29 09:41:18;;;;;;;1.50;0.70;;;;;;;14.98;100.00;98918.64;106510;1273;100402;-48
2023/08/29 09:43:48;;;;;;;0.70;0.70;;;;;;;14.86;100.00;98914.71;107111;1273;22530;-49
2023/08/29 09:46:22;;;;;;;0.60;0.40;;;;;;;14.84;100.00;98909.44;108358;1273;99901;-51
2023/08/29 09:48:59;;;;;;;1.90;0.50;;;;;;;14.84;100.00;98916.11;106855;1273;22591;-50
2023/08/29 09:51:32;;;;;;;0.70;0.50;;;;;;;14.79;100.00;98914.77;106507;1273;100231;-50
2023/08/29 09:54:07;;;;;;;0.60;0.30;;;;;;;14.76;100.00;98914.77;106931;1274;22620;-52
2023/08/29 09:56:41;;;;;;;2.00;0.40;;;;;;;14.79;100.00;98914.23;107133;1273;99177;-52
2023/08/29 09:59:13;;;;;;;0.50;0.40;;;;;;;14.85;100.00;98914.97;106997;1273;99240;-50
2023/08/29 10:01:46;;;;;;;0.50;0.40;;;;;;;14.88;100.00;98921.73;106885;1276;22545;-52
2023/08/29 10:04:20;;;;;;;1.70;0.30;;;;;;;14.95;100.00;98917.67;106522;1273;100348;-52
2023/08/29 10:06:58;;;;;;;0.70;0.30;;;;;;;14.98;100.00;98908.17;106358;1273;23367;-50
2023/08/29 10:09:28;;;;;;;0.70;0.30;;;;;;;15.02;100.00;98905.23;106994;1273;99355;-52
2023/08/29 10:11:58;;;;;;;0.30;0.20;;;;;;;15.05;100.00;98902.35;106244;1270;23752;-52
2023/08/29 10:14:29;;;;;;;0.20;0.10;;;;;;;14.99;100.00;98903.70;106766;1273;101362;-52
2023/08/29 10:17:03;;;;;;;2.40;0.80;;;;;;;15.03;100.00;98905.19;107985;1273;99498;-50
2023/08/29 10:19:44;;;;;;;0.80;0.20;;;;;;;15.15;100.00;98889.86;106778;1273;25374;-53
2023/08/29 10:22:14;;;;;;;0.40;0.30;;;;;;;15.21;100.00;98893.52;106424;1273;99258;-53
2023/08/29 10:24:45;;;;;;;0.50;0.20;;;;;;;15.22;100.00;98889.23;106605;1273;25377;-55
2023/08/29 10:27:13;;;;;;;0.20;0.20;;;;;;;15.19;100.00;98891.75;106347;1272;101060;-55
2023/08/29 10:29:43;;;;;;;0.40;0.20;;;;;;;15.18;100.00;98894.89;106799;1267;99422;-53
2023/08/29 10:32:12;;;;;;;0.60;0.30;;;;;;;15.18;100.00;98894.48;106513;1273;99892;-51
2023/08/29 10:34:42;;;;;;;0.60;0.30;;;;;;;15.14;100.00;98888.86;106196;1277;99295;-54
2023/08/29 10:37:18;;;;;;;0.90;0.30;;;;;;;15.06;100.00;98877.95;106550;1276;25291;-54
2023/08/29 10:39:50;;;;;;;0.20;0.20;;;;;;;15.06;100.00;98866.86;107228;1274;99881;-56
2023/08/29 10:42:20;;;;;;;0.50;0.30;;;;;;;15.07;100.00;98868.38;106464;1273;22641;-57
2023/08/29 10:44:50;;;;;;;1.40;0.40;;;;;;;15.08;100.00;98857.98;106361;1273;99106;-52
2023/08/29 10:47:35;;;;;;;0.60;0.40;;;;;;;15.05;100.00;98855.93;106494;1273;99160;-51
2023/08/29 10:50:07;;;;;;;1.00;0.30;;;;;;;15.05;100.00;98853.33;106341;1273;99235;-55
2023/08/29 10:52:39;;;;;;;0.90;0.30;;;;;;;15.02;100.00;98851.23;106279;1273;99271;-60
2023/08/29 10:55:25;;;;;;;1.50;0.50;;;;;;;15.06;100.00;98853.79;106611;1273;25277;-56
2023/08/29 10:57:58;;;;;;;0.80;0.50;;;;;;;15.09;100.00;98845.28;106776;1274;99349;-55
2023/08/29 11:00:39;;;;;;;0.70;0.30;;;;;;;15.09;100.00;98842.24;106623;1273;22561;-53
2023/08/29 11:03:08;;;;;;;0.90;0.50;;;;;;;15.13;100.00;98844.44;106407;1273;101365;-53
2023/08/29 11:05:39;;;;;;;1.40;0.50;;;;;;;15.27;100.00;98849.45;106504;1273;99117;-51
2023/08/29 11:08:21;;;;;;;1.50;0.80;;;;;;;15.50;100.00;98850.90;106739;1272;99344;-49
2023/08/29 11:11:26;;;;;;;0.80;0.30;;;;;;;15.63;100.00;98856.48;106332;1273;99783;-50
2023/08/29 11:14:03;;;;;;;0.80;0.50;;;;;;;15.60;100.00;98863.59;106087;1280;99489;-50
2023/08/29 11:16:35;;;;;;;0.80;0.40;;;;;;;15.66;100.00;98875.89;106079;1280;102522;-50
2023/08/29 11:19:11;;;;;;;0.60;0.40;;;;;;;15.71;100.00;98873.59;106011;1280;22552;-51
2023/08/29 11:21:43;;;;;;;0.50;0.40;;;;;;;15.73;100.00;98879.23;105996;1280;99398;-51
2023/08/29 11:24:12;;;;;;;0.50;0.30;;;;;;;15.72;100.00;98884.54;105916;1280;24228;-50
2023/08/29 11:26:46;;;;;;;10.10;0.60;;;;;;;15.68;100.00;98884.70;106810;1280;101058;-53
2023/08/29 11:29:16;;;;;;;0.40;0.40;;;;;;;15.71;100.00;98886.76;105802;1280;99714;-53
2023/08/29 11:31:45;;;;;;;0.60;0.50;;;;;;;15.72;100.00;98880.14;107419;1280;23103;-51
2023/08/29 11:34:21;;;;;;;0.60;0.40;;;;;;;15.71;100.00;98878.90;107253;1280;99290;-55